sensor_id;sensor_type;location;lat;lon;timestamp;P1;durP1;ratioP1;P2;durP2;ratioP2
60078;SDS011;45951;45.824;8.824;2022-08-30T00:06:03;6.70;;;6.03;;
60078;SDS011;45951;45.824;8.824;2022-08-30T00:12:05;7.18;;;6.47;;
60078;SDS011;45951;45.824;8.824;2022-08-30T00:18:06;6.78;;;6.07;;
60078;SDS011;45951;45.824;8.824;2022-08-30T00:24:06;6.82;;;5.82;;
60078;SDS011;45951;45.824;8.824;2022-08-30T00:30:07;6.87;;;6.17;;
60078;SDS011;45951;45.824;8.824;2022-08-30T00:36:09;7.15;;;6.03;;
60078;SDS011;45951;45.824;8.824;2022-08-30T00:42:09;6.70;;;6.00;;
60078;SDS011;45951;45.824;8.824;2022-08-30T00:48:10;7.10;;;6.40;;
60078;SDS011;45951;45.824;8.824;2022-08-30T00:54:10;7.07;;;6.13;;
60078;SDS011;45951;45.824;8.824;2022-08-30T01:00:12;7.88;;;6.80;;
60078;SDS011;45951;45.824;8.824;2022-08-30T01:06:13;9.10;;;6.55;;
60078;SDS011;45951;45.824;8.824;2022-08-30T01:12:15;7.85;;;6.43;;
60078;SDS011;45951;45.824;8.824;2022-08-30T01:18:15;8.30;;;7.03;;
60078;SDS011;45951;45.824;8.824;2022-08-30T01:24:17;8.10;;;6.80;;
60078;SDS011;45951;45.824;8.824;2022-08-30T01:30:18;8.75;;;6.95;;
60078;SDS011;45951;45.824;8.824;2022-08-30T01:36:19;10.05;;;6.93;;
60078;SDS011;45951;45.824;8.824;2022-08-30T01:42:20;9.70;;;7.57;;
60078;SDS011;45951;45.824;8.824;2022-08-30T01:48:21;8.90;;;7.80;;
60078;SDS011;45951;45.824;8.824;2022-08-30T01:54:21;7.93;;;7.13;;
60078;SDS011;45951;45.824;8.824;2022-08-30T02:00:22;8.52;;;7.63;;
60078;SDS011;45951;45.824;8.824;2022-08-30T02:06:22;8.83;;;7.80;;
60078;SDS011;45951;45.824;8.824;2022-08-30T02:12:23;8.57;;;7.37;;
60078;SDS011;45951;45.824;8.824;2022-08-30T02:18:24;9.05;;;7.78;;
60078;SDS011;45951;45.824;8.824;2022-08-30T02:24:26;8.57;;;7.68;;
60078;SDS011;45951;45.824;8.824;2022-08-30T02:30:26;8.15;;;7.35;;
60078;SDS011;45951;45.824;8.824;2022-08-30T02:36:26;8.23;;;7.40;;
60078;SDS011;45951;45.824;8.824;2022-08-30T02:42:27;7.33;;;6.63;;
60078;SDS011;45951;45.824;8.824;2022-08-30T02:48:27;9.07;;;8.05;;
60078;SDS011;45951;45.824;8.824;2022-08-30T02:54:53;8.40;;;7.60;;
60078;SDS011;45951;45.824;8.824;2022-08-30T03:00:54;8.85;;;7.63;;
60078;SDS011;45951;45.824;8.824;2022-08-30T03:06:54;9.52;;;8.48;;
60078;SDS011;45951;45.824;8.824;2022-08-30T03:12:54;9.85;;;8.85;;
60078;SDS011;45951;45.824;8.824;2022-08-30T03:18:55;9.77;;;8.05;;
60078;SDS011;45951;45.824;8.824;2022-08-30T03:24:55;9.98;;;8.95;;
60078;SDS011;45951;45.824;8.824;2022-08-30T03:30:58;10.50;;;8.75;;
60078;SDS011;45951;45.824;8.824;2022-08-30T03:36:59;8.98;;;7.90;;
60078;SDS011;45951;45.824;8.824;2022-08-30T03:43:00;11.07;;;7.78;;
60078;SDS011;45951;45.824;8.824;2022-08-30T03:49:00;9.18;;;8.13;;
60078;SDS011;45951;45.824;8.824;2022-08-30T03:55:00;8.40;;;7.28;;
60078;SDS011;45951;45.824;8.824;2022-08-30T04:01:01;8.10;;;6.82;;
60078;SDS011;45951;45.824;8.824;2022-08-30T04:07:01;8.13;;;7.33;;
60078;SDS011;45951;45.824;8.824;2022-08-30T04:13:02;8.60;;;7.00;;
60078;SDS011;45951;45.824;8.824;2022-08-30T04:19:02;7.97;;;7.07;;
60078;SDS011;45951;45.824;8.824;2022-08-30T04:25:03;9.10;;;6.75;;
60078;SDS011;45951;45.824;8.824;2022-08-30T04:31:11;8.07;;;6.82;;
60078;SDS011;45951;45.824;8.824;2022-08-30T04:37:14;7.75;;;6.95;;
60078;SDS011;45951;45.824;8.824;2022-08-30T04:43:15;9.45;;;7.57;;
60078;SDS011;45951;45.824;8.824;2022-08-30T04:49:15;8.45;;;7.32;;
60078;SDS011;45951;45.824;8.824;2022-08-30T04:55:16;7.80;;;7.00;;
60078;SDS011;45951;45.824;8.824;2022-08-30T05:01:18;7.93;;;6.83;;
60078;SDS011;45951;45.824;8.824;2022-08-30T05:07:20;8.38;;;7.20;;
60078;SDS011;45951;45.824;8.824;2022-08-30T05:13:20;8.93;;;7.40;;
60078;SDS011;45951;45.824;8.824;2022-08-30T05:19:21;8.00;;;7.20;;
60078;SDS011;45951;45.824;8.824;2022-08-30T05:25:23;7.88;;;7.05;;
60078;SDS011;45951;45.824;8.824;2022-08-30T05:31:26;8.13;;;6.82;;
60078;SDS011;45951;45.824;8.824;2022-08-30T05:37:29;8.50;;;7.60;;
60078;SDS011;45951;45.824;8.824;2022-08-30T05:43:30;8.05;;;6.88;;
60078;SDS011;45951;45.824;8.824;2022-08-30T05:49:31;6.93;;;6.10;;
60078;SDS011;45951;45.824;8.824;2022-08-30T05:55:31;7.55;;;6.45;;
60078;SDS011;45951;45.824;8.824;2022-08-30T06:01:33;8.88;;;6.40;;
60078;SDS011;45951;45.824;8.824;2022-08-30T06:07:34;10.07;;;6.78;;
60078;SDS011;45951;45.824;8.824;2022-08-30T06:13:35;7.00;;;6.30;;
60078;SDS011;45951;45.824;8.824;2022-08-30T06:19:35;7.40;;;6.38;;
60078;SDS011;45951;45.824;8.824;2022-08-30T06:25:36;8.13;;;6.25;;
60078;SDS011;45951;45.824;8.824;2022-08-30T06:31:37;7.57;;;5.72;;
60078;SDS011;45951;45.824;8.824;2022-08-30T06:37:37;10.90;;;7.03;;
60078;SDS011;45951;45.824;8.824;2022-08-30T06:43:38;14.02;;;8.60;;
60078;SDS011;45951;45.824;8.824;2022-08-30T06:49:38;11.88;;;8.73;;
60078;SDS011;45951;45.824;8.824;2022-08-30T06:55:39;10.52;;;8.13;;
60078;SDS011;45951;45.824;8.824;2022-08-30T07:01:40;7.72;;;6.93;;
60078;SDS011;45951;45.824;8.824;2022-08-30T07:07:40;8.48;;;6.85;;
60078;SDS011;45951;45.824;8.824;2022-08-30T07:13:41;8.60;;;7.53;;
60078;SDS011;45951;45.824;8.824;2022-08-30T07:19:42;8.35;;;7.43;;
60078;SDS011;45951;45.824;8.824;2022-08-30T07:25:42;8.82;;;7.75;;
60078;SDS011;45951;45.824;8.824;2022-08-30T07:31:43;8.95;;;8.05;;
60078;SDS011;45951;45.824;8.824;2022-08-30T07:37:43;8.90;;;8.00;;
60078;SDS011;45951;45.824;8.824;2022-08-30T07:43:44;7.75;;;6.97;;
60078;SDS011;45951;45.824;8.824;2022-08-30T07:49:45;10.53;;;8.87;;
60078;SDS011;45951;45.824;8.824;2022-08-30T07:55:45;14.30;;;10.85;;
60078;SDS011;45951;45.824;8.824;2022-08-30T08:01:46;11.93;;;10.63;;
60078;SDS011;45951;45.824;8.824;2022-08-30T08:07:46;14.38;;;12.88;;
60078;SDS011;45951;45.824;8.824;2022-08-30T08:13:47;12.10;;;10.45;;
60078;SDS011;45951;45.824;8.824;2022-08-30T08:19:48;15.93;;;11.93;;
60078;SDS011;45951;45.824;8.824;2022-08-30T08:25:49;13.43;;;12.02;;
60078;SDS011;45951;45.824;8.824;2022-08-30T08:31:49;13.65;;;11.18;;
60078;SDS011;45951;45.824;8.824;2022-08-30T08:37:49;12.27;;;10.67;;
60078;SDS011;45951;45.824;8.824;2022-08-30T08:43:50;12.95;;;11.20;;
60078;SDS011;45951;45.824;8.824;2022-08-30T08:49:51;12.37;;;10.97;;
60078;SDS011;45951;45.824;8.824;2022-08-30T08:55:55;14.23;;;11.38;;
60078;SDS011;45951;45.824;8.824;2022-08-30T09:01:59;11.82;;;10.60;;
60078;SDS011;45951;45.824;8.824;2022-08-30T09:08:04;11.00;;;9.90;;
60078;SDS011;45951;45.824;8.824;2022-08-30T09:14:08;14.07;;;11.85;;
60078;SDS011;45951;45.824;8.824;2022-08-30T09:20:09;14.00;;;10.63;;
60078;SDS011;45951;45.824;8.824;2022-08-30T09:26:10;13.02;;;11.73;;
60078;SDS011;45951;45.824;8.824;2022-08-30T09:32:12;12.27;;;9.93;;
60078;SDS011;45951;45.824;8.824;2022-08-30T09:38:25;11.52;;;10.10;;
60078;SDS011;45951;45.824;8.824;2022-08-30T09:44:28;11.68;;;10.40;;
60078;SDS011;45951;45.824;8.824;2022-08-30T09:50:36;11.82;;;10.63;;
60078;SDS011;45951;45.824;8.824;2022-08-30T10:15:31;12.35;;;10.57;;
60078;SDS011;45951;45.824;8.824;2022-08-30T10:21:42;12.35;;;11.15;;
60078;SDS011;45951;45.824;8.824;2022-08-30T10:34:20;10.52;;;9.52;;
60078;SDS011;45951;45.824;8.824;2022-08-30T10:40:46;10.57;;;9.43;;
60078;SDS011;45951;45.824;8.824;2022-08-30T10:53:44;10.15;;;8.95;;
60078;SDS011;45951;45.824;8.824;2022-08-30T10:59:48;10.30;;;9.20;;
60078;SDS011;45951;45.824;8.824;2022-08-30T11:18:51;12.45;;;10.82;;
60078;SDS011;45951;45.824;8.824;2022-08-30T11:31:02;14.05;;;12.52;;
60078;SDS011;45951;45.824;8.824;2022-08-30T11:37:10;14.35;;;12.73;;
60078;SDS011;45951;45.824;8.824;2022-08-30T11:49:42;15.10;;;13.50;;
60078;SDS011;45951;45.824;8.824;2022-08-30T12:02:45;15.65;;;14.15;;
60078;SDS011;45951;45.824;8.824;2022-08-30T12:08:51;16.45;;;13.20;;
60078;SDS011;45951;45.824;8.824;2022-08-30T12:14:52;15.17;;;13.57;;
60078;SDS011;45951;45.824;8.824;2022-08-30T12:20:54;14.60;;;13.10;;
60078;SDS011;45951;45.824;8.824;2022-08-30T12:26:58;16.53;;;14.90;;
60078;SDS011;45951;45.824;8.824;2022-08-30T12:32:58;16.90;;;15.20;;
60078;SDS011;45951;45.824;8.824;2022-08-30T12:39:06;17.83;;;16.02;;
60078;SDS011;45951;45.824;8.824;2022-08-30T12:45:10;16.67;;;15.07;;
60078;SDS011;45951;45.824;8.824;2022-08-30T12:58:32;14.57;;;13.07;;
60078;SDS011;45951;45.824;8.824;2022-08-30T13:10:21;12.73;;;11.25;;
60078;SDS011;45951;45.824;8.824;2022-08-30T13:16:24;17.53;;;15.93;;
60078;SDS011;45951;45.824;8.824;2022-08-30T13:28:26;15.52;;;14.02;;
60078;SDS011;45951;45.824;8.824;2022-08-30T13:34:28;14.10;;;12.65;;
60078;SDS011;45951;45.824;8.824;2022-08-30T13:40:31;14.23;;;12.83;;
60078;SDS011;45951;45.824;8.824;2022-08-30T13:46:32;12.80;;;11.57;;
60078;SDS011;45951;45.824;8.824;2022-08-30T13:52:32;13.00;;;11.73;;
60078;SDS011;45951;45.824;8.824;2022-08-30T13:58:33;12.90;;;11.60;;
60078;SDS011;45951;45.824;8.824;2022-08-30T14:04:33;12.47;;;11.20;;
60078;SDS011;45951;45.824;8.824;2022-08-30T14:10:34;10.68;;;9.50;;
60078;SDS011;45951;45.824;8.824;2022-08-30T14:16:36;10.02;;;9.02;;
60078;SDS011;45951;45.824;8.824;2022-08-30T14:22:37;10.77;;;9.73;;
60078;SDS011;45951;45.824;8.824;2022-08-30T14:28:38;10.38;;;9.38;;
60078;SDS011;45951;45.824;8.824;2022-08-30T14:34:38;9.25;;;8.35;;
60078;SDS011;45951;45.824;8.824;2022-08-30T14:40:39;8.52;;;7.68;;
60078;SDS011;45951;45.824;8.824;2022-08-30T14:46:39;7.25;;;6.47;;
60078;SDS011;45951;45.824;8.824;2022-08-30T14:52:40;7.15;;;6.45;;
60078;SDS011;45951;45.824;8.824;2022-08-30T14:58:41;8.98;;;7.80;;
60078;SDS011;45951;45.824;8.824;2022-08-30T15:04:41;7.87;;;6.83;;
60078;SDS011;45951;45.824;8.824;2022-08-30T15:10:41;7.18;;;6.47;;
60078;SDS011;45951;45.824;8.824;2022-08-30T15:16:43;8.00;;;7.15;;
60078;SDS011;45951;45.824;8.824;2022-08-30T15:22:44;7.35;;;6.22;;
60078;SDS011;45951;45.824;8.824;2022-08-30T15:28:44;7.18;;;5.78;;
60078;SDS011;45951;45.824;8.824;2022-08-30T15:34:45;6.85;;;6.15;;
60078;SDS011;45951;45.824;8.824;2022-08-30T15:40:47;7.43;;;5.80;;
60078;SDS011;45951;45.824;8.824;2022-08-30T15:46:48;7.22;;;6.32;;
60078;SDS011;45951;45.824;8.824;2022-08-30T15:52:48;7.57;;;6.60;;
60078;SDS011;45951;45.824;8.824;2022-08-30T15:58:49;7.77;;;6.47;;
60078;SDS011;45951;45.824;8.824;2022-08-30T16:04:49;7.13;;;6.40;;
60078;SDS011;45951;45.824;8.824;2022-08-30T16:10:50;7.13;;;6.30;;
60078;SDS011;45951;45.824;8.824;2022-08-30T16:16:50;8.95;;;7.28;;
60078;SDS011;45951;45.824;8.824;2022-08-30T16:22:50;7.68;;;6.97;;
60078;SDS011;45951;45.824;8.824;2022-08-30T16:28:51;7.40;;;6.70;;
60078;SDS011;45951;45.824;8.824;2022-08-30T16:34:52;8.82;;;6.82;;
60078;SDS011;45951;45.824;8.824;2022-08-30T16:40:52;7.28;;;6.57;;
60078;SDS011;45951;45.824;8.824;2022-08-30T16:46:54;7.10;;;6.40;;
60078;SDS011;45951;45.824;8.824;2022-08-30T16:52:54;7.60;;;6.68;;
60078;SDS011;45951;45.824;8.824;2022-08-30T16:58:55;7.85;;;6.57;;
60078;SDS011;45951;45.824;8.824;2022-08-30T17:04:56;7.28;;;6.57;;
60078;SDS011;45951;45.824;8.824;2022-08-30T17:10:57;8.13;;;6.57;;
60078;SDS011;45951;45.824;8.824;2022-08-30T17:16:57;8.77;;;6.37;;
60078;SDS011;45951;45.824;8.824;2022-08-30T17:22:58;7.90;;;5.97;;
60078;SDS011;45951;45.824;8.824;2022-08-30T17:28:58;7.25;;;6.28;;
60078;SDS011;45951;45.824;8.824;2022-08-30T17:34:59;6.70;;;6.00;;
60078;SDS011;45951;45.824;8.824;2022-08-30T17:41:03;7.15;;;5.88;;
60078;SDS011;45951;45.824;8.824;2022-08-30T17:53:05;7.20;;;5.72;;
60078;SDS011;45951;45.824;8.824;2022-08-30T17:59:05;6.37;;;5.67;;
60078;SDS011;45951;45.824;8.824;2022-08-30T18:05:07;7.53;;;5.82;;
60078;SDS011;45951;45.824;8.824;2022-08-30T18:11:08;7.00;;;5.40;;
60078;SDS011;45951;45.824;8.824;2022-08-30T18:17:09;7.78;;;6.03;;
60078;SDS011;45951;45.824;8.824;2022-08-30T18:23:09;6.50;;;5.90;;
60078;SDS011;45951;45.824;8.824;2022-08-30T18:29:10;6.80;;;5.65;;
60078;SDS011;45951;45.824;8.824;2022-08-30T18:35:11;6.60;;;5.50;;
60078;SDS011;45951;45.824;8.824;2022-08-30T18:41:11;6.97;;;5.60;;
60078;SDS011;45951;45.824;8.824;2022-08-30T18:47:13;8.05;;;6.40;;
60078;SDS011;45951;45.824;8.824;2022-08-30T18:53:14;7.47;;;6.68;;
60078;SDS011;45951;45.824;8.824;2022-08-30T18:59:14;7.78;;;6.97;;
60078;SDS011;45951;45.824;8.824;2022-08-30T19:05:16;10.20;;;6.90;;
60078;SDS011;45951;45.824;8.824;2022-08-30T19:11:17;7.68;;;6.80;;
60078;SDS011;45951;45.824;8.824;2022-08-30T19:17:18;7.40;;;6.55;;
60078;SDS011;45951;45.824;8.824;2022-08-30T19:23:18;9.50;;;7.90;;
60078;SDS011;45951;45.824;8.824;2022-08-30T19:29:19;9.82;;;8.55;;
60078;SDS011;45951;45.824;8.824;2022-08-30T19:35:20;7.18;;;6.47;;
60078;SDS011;45951;45.824;8.824;2022-08-30T19:41:21;8.25;;;7.00;;
60078;SDS011;45951;45.824;8.824;2022-08-30T19:47:22;9.30;;;7.85;;
60078;SDS011;45951;45.824;8.824;2022-08-30T19:53:22;8.55;;;7.75;;
60078;SDS011;45951;45.824;8.824;2022-08-30T19:59:23;8.32;;;7.38;;
60078;SDS011;45951;45.824;8.824;2022-08-30T20:05:23;7.95;;;6.93;;
60078;SDS011;45951;45.824;8.824;2022-08-30T20:11:24;8.73;;;7.82;;
60078;SDS011;45951;45.824;8.824;2022-08-30T20:17:24;8.60;;;7.70;;
60078;SDS011;45951;45.824;8.824;2022-08-30T20:23:25;9.20;;;8.30;;
60078;SDS011;45951;45.824;8.824;2022-08-30T20:29:25;8.93;;;8.02;;
60078;SDS011;45951;45.824;8.824;2022-08-30T20:35:26;8.60;;;7.70;;
60078;SDS011;45951;45.824;8.824;2022-08-30T20:41:27;8.35;;;7.55;;
60078;SDS011;45951;45.824;8.824;2022-08-30T20:47:29;8.32;;;7.43;;
60078;SDS011;45951;45.824;8.824;2022-08-30T20:53:30;8.38;;;7.50;;
60078;SDS011;45951;45.824;8.824;2022-08-30T20:59:31;8.23;;;7.43;;
60078;SDS011;45951;45.824;8.824;2022-08-30T21:05:31;9.02;;;8.13;;
60078;SDS011;45951;45.824;8.824;2022-08-30T21:11:33;8.57;;;7.68;;
60078;SDS011;45951;45.824;8.824;2022-08-30T21:17:34;10.80;;;8.15;;
60078;SDS011;45951;45.824;8.824;2022-08-30T21:23:34;8.63;;;7.70;;
60078;SDS011;45951;45.824;8.824;2022-08-30T21:29:35;8.40;;;7.00;;
60078;SDS011;45951;45.824;8.824;2022-08-30T21:35:37;8.13;;;7.03;;
60078;SDS011;45951;45.824;8.824;2022-08-30T21:41:56;8.45;;;6.82;;
60078;SDS011;45951;45.824;8.824;2022-08-30T21:47:56;7.85;;;7.05;;
60078;SDS011;45951;45.824;8.824;2022-08-30T21:53:56;8.77;;;7.15;;
60078;SDS011;45951;45.824;8.824;2022-08-30T21:59:57;7.43;;;6.60;;
60078;SDS011;45951;45.824;8.824;2022-08-30T22:05:57;8.32;;;6.68;;
60078;SDS011;45951;45.824;8.824;2022-08-30T22:11:58;7.70;;;6.45;;
60078;SDS011;45951;45.824;8.824;2022-08-30T22:17:58;7.67;;;6.17;;
60078;SDS011;45951;45.824;8.824;2022-08-30T22:23:59;9.20;;;6.57;;
60078;SDS011;45951;45.824;8.824;2022-08-30T22:29:59;7.80;;;6.17;;
60078;SDS011;45951;45.824;8.824;2022-08-30T22:36:10;7.00;;;6.22;;
60078;SDS011;45951;45.824;8.824;2022-08-30T22:42:14;6.63;;;5.47;;
60078;SDS011;45951;45.824;8.824;2022-08-30T22:48:14;6.82;;;5.32;;
60078;SDS011;45951;45.824;8.824;2022-08-30T22:54:14;8.70;;;5.75;;
60078;SDS011;45951;45.824;8.824;2022-08-30T23:00:15;6.57;;;5.27;;
60078;SDS011;45951;45.824;8.824;2022-08-30T23:06:16;6.53;;;5.50;;
60078;SDS011;45951;45.824;8.824;2022-08-30T23:12:16;5.82;;;4.85;;
60078;SDS011;45951;45.824;8.824;2022-08-30T23:18:17;6.88;;;5.47;;
60078;SDS011;45951;45.824;8.824;2022-08-30T23:24:17;6.78;;;5.30;;
60078;SDS011;45951;45.824;8.824;2022-08-30T23:30:36;6.85;;;5.47;;
60078;SDS011;45951;45.824;8.824;2022-08-30T23:36:55;5.97;;;4.75;;
60078;SDS011;45951;45.824;8.824;2022-08-30T23:43:14;7.03;;;4.95;;
60078;SDS011;45951;45.824;8.824;2022-08-30T23:49:33;6.40;;;5.00;;
60078;SDS011;45951;45.824;8.824;2022-08-30T23:55:52;5.72;;;4.82;;
